Time;durP1;ratioP1;P1;durP2;ratioP2;P2;SDS_P1;SDS_P2;PMS_P1;PMS_P2;Temp;Humidity;BMP_temperature;BMP_pressure;BME280_temperature;BME280_humidity;BME280_pressure;Samples;Min_cycle;Max_cycle;Signal;HPM_P1;HPM_P2
2022/09/29 03:20:56;;;;;;;10.57;5.28;;;;;;;;;;6102966;23;20202;-91
2022/09/29 03:24:01;;;;;;;10.75;5.70;;;;;;;;;;6106445;23;20247;-91
2022/09/29 03:27:06;;;;;;;10.43;5.10;;;;;;;;;;6105919;23;20517;-91
2022/09/29 03:30:12;;;;;;;10.25;5.50;;;;;;;;;;6104713;23;20242;-91
2022/09/29 03:33:17;;;;;;;12.03;5.07;;;;;;;;;;6105597;23;20231;-90
2022/09/29 03:36:24;;;;;;;10.73;5.30;;;;;;;;;;6106835;23;20197;-90
2022/09/29 03:39:30;;;;;;;12.77;5.90;;;;;;;;;;6107104;23;20181;-91
2022/09/29 03:42:35;;;;;;;12.53;5.93;;;;;;;;;;6107283;23;20185;-93
2022/09/29 03:45:48;;;;;;;11.73;5.80;;;;;;;;;;6107801;23;20165;-91
2022/09/29 03:48:53;;;;;;;12.23;6.20;;;;;;;;;;6108101;23;20185;-92
2022/09/29 03:52:04;;;;;;;11.13;6.00;;;;;;;;;;6105938;23;20226;-90
2022/09/29 03:55:09;;;;;;;11.07;6.20;;;;;;;;;;6107024;23;20169;-91
2022/09/29 03:58:14;;;;;;;10.10;5.93;;;;;;;;;;6108119;23;20290;-91
2022/09/29 04:01:28;;;;;;;13.53;6.30;;;;;;;;;;6106771;23;20170;-91
2022/09/29 04:04:33;;;;;;;9.35;5.47;;;;;;;;;;6106708;23;20591;-90
2022/09/29 04:07:39;;;;;;;12.43;6.03;;;;;;;;;;6104752;23;20173;-91
2022/09/29 04:10:46;;;;;;;9.43;5.72;;;;;;;;;;6106087;23;20178;-90
2022/09/29 04:13:51;;;;;;;12.07;6.00;;;;;;;;;;6107667;23;20169;-91
2022/09/29 04:16:56;;;;;;;11.73;4.53;;;;;;;;;;6107702;23;20213;-90
2022/09/29 04:20:02;;;;;;;6.93;4.20;;;;;;;;;;6105685;23;20201;-90
2022/09/29 04:23:09;;;;;;;8.17;4.47;;;;;;;;;;6104721;23;20158;-89
2022/09/29 04:26:14;;;;;;;7.37;4.07;;;;;;;;;;6107020;23;20165;-91
2022/09/29 04:29:19;;;;;;;6.93;4.30;;;;;;;;;;6108411;23;20199;-91
2022/09/29 04:32:24;;;;;;;8.13;4.93;;;;;;;;;;6108069;23;20218;-91
2022/09/29 04:35:30;;;;;;;11.07;5.67;;;;;;;;;;6107112;23;20298;-89
2022/09/29 04:38:49;;;;;;;10.80;6.07;;;;;;;;;;6105714;23;20179;-90
2022/09/29 04:41:54;;;;;;;13.50;5.93;;;;;;;;;;6107815;23;20202;-90
2022/09/29 04:44:59;;;;;;;15.07;6.40;;;;;;;;;;6106879;23;20295;-89
2022/09/29 04:48:05;;;;;;;15.57;6.20;;;;;;;;;;6108048;23;20193;-89
2022/09/29 04:51:10;;;;;;;12.83;6.33;;;;;;;;;;6109396;23;20722;-91
2022/09/29 04:54:17;;;;;;;12.57;6.37;;;;;;;;;;6105377;23;20178;-90
2022/09/29 04:57:21;;;;;;;19.30;7.23;;;;;;;;;;6104654;23;20637;-88
2022/09/29 05:00:27;;;;;;;18.77;6.90;;;;;;;;;;6104700;23;20162;-90
2022/09/29 05:03:33;;;;;;;17.47;6.97;;;;;;;;;;6107492;23;20186;-91
2022/09/29 05:06:38;;;;;;;17.33;7.13;;;;;;;;;;6107096;23;20234;-91
2022/09/29 05:09:47;;;;;;;16.93;6.47;;;;;;;;;;6107696;23;20245;-91
2022/09/29 05:12:53;;;;;;;25.27;7.77;;;;;;;;;;6106019;23;20652;-90
2022/09/29 05:15:58;;;;;;;19.67;6.80;;;;;;;;;;6107697;23;20202;-90
2022/09/29 05:19:03;;;;;;;15.60;7.37;;;;;;;;;;6110682;23;20166;-91
2022/09/29 05:22:08;;;;;;;13.75;6.88;;;;;;;;;;6108327;23;20269;-91
2022/09/29 05:25:15;;;;;;;18.57;7.63;;;;;;;;;;6107337;23;20174;-89
2022/09/29 05:28:20;;;;;;;22.97;8.00;;;;;;;;;;6106123;23;20188;-89
2022/09/29 05:31:25;;;;;;;19.77;8.07;;;;;;;;;;6107861;23;20262;-91
2022/09/29 05:34:31;;;;;;;18.37;8.13;;;;;;;;;;6104542;23;20154;-92
2022/09/29 05:37:36;;;;;;;17.57;7.40;;;;;;;;;;6109992;23;20185;-91
2022/09/29 05:40:43;;;;;;;24.33;6.97;;;;;;;;;;6109327;23;20555;-91
2022/09/29 05:43:49;;;;;;;19.60;7.00;;;;;;;;;;6108769;23;20552;-92
2022/09/29 05:46:56;;;;;;;15.07;6.73;;;;;;;;;;6110012;23;20190;-92
2022/09/29 05:50:02;;;;;;;16.80;7.37;;;;;;;;;;6110957;23;20191;-91
2022/09/29 05:53:07;;;;;;;15.20;6.73;;;;;;;;;;6107577;23;20292;-92
2022/09/29 05:56:14;;;;;;;13.27;6.47;;;;;;;;;;6107698;23;20170;-92
2022/09/29 05:59:19;;;;;;;17.40;7.20;;;;;;;;;;6108191;23;20170;-92
2022/09/29 06:02:24;;;;;;;13.03;6.67;;;;;;;;;;6107653;23;20242;-92
2022/09/29 06:05:30;;;;;;;15.87;7.87;;;;;;;;;;6107432;23;20162;-92
2022/09/29 06:08:35;;;;;;;13.73;5.90;;;;;;;;;;6107048;23;20286;-93
2022/09/29 06:11:42;;;;;;;11.70;6.33;;;;;;;;;;6109884;23;20605;-92
2022/09/29 06:14:47;;;;;;;9.00;5.00;;;;;;;;;;6111828;23;20625;-92
2022/09/29 06:17:55;;;;;;;10.23;5.30;;;;;;;;;;6107807;23;20245;-92
2022/09/29 06:21:01;;;;;;;9.13;4.47;;;;;;;;;;6107496;23;20221;-91
2022/09/29 06:24:08;;;;;;;8.03;4.50;;;;;;;;;;6108067;23;20169;-90
2022/09/29 06:27:16;;;;;;;9.97;4.60;;;;;;;;;;6108190;23;20169;-90
2022/09/29 06:30:21;;;;;;;8.83;4.77;;;;;;;;;;6111132;23;20194;-90
2022/09/29 06:33:26;;;;;;;10.77;4.80;;;;;;;;;;6107864;23;20174;-89
2022/09/29 06:39:55;;;;;;;11.23;6.27;;;;;;;;;;6107511;23;20166;-90
2022/09/29 06:43:02;;;;;;;13.23;6.80;;;;;;;;;;6112575;23;20252;-90
2022/09/29 06:46:07;;;;;;;11.68;6.72;;;;;;;;;;6108937;23;20175;-90
2022/09/29 06:49:14;;;;;;;14.77;6.88;;;;;;;;;;6110990;23;20276;-90
2022/09/29 06:52:19;;;;;;;11.80;6.28;;;;;;;;;;6106683;23;20175;-90
2022/09/29 06:55:24;;;;;;;12.88;6.40;;;;;;;;;;6107972;23;20575;-89
2022/09/29 06:58:31;;;;;;;13.88;6.40;;;;;;;;;;6109446;23;20201;-92
2022/09/29 07:01:36;;;;;;;11.00;6.18;;;;;;;;;;6109885;23;20193;-91
2022/09/29 07:04:41;;;;;;;11.55;6.80;;;;;;;;;;6110067;23;20173;-92
2022/09/29 07:07:54;;;;;;;15.73;7.57;;;;;;;;;;6107372;23;20177;-92
2022/09/29 07:10:59;;;;;;;13.57;7.57;;;;;;;;;;6108213;23;20162;-89
2022/09/29 07:14:06;;;;;;;17.02;8.65;;;;;;;;;;6106467;23;20174;-89
2022/09/29 07:17:13;;;;;;;10.75;6.55;;;;;;;;;;6108751;23;20653;-90
2022/09/29 07:20:18;;;;;;;12.85;7.55;;;;;;;;;;6106569;23;20637;-90
2022/09/29 07:23:22;;;;;;;13.23;6.70;;;;;;;;;;6107027;23;20566;-91
2022/09/29 07:26:28;;;;;;;13.38;6.13;;;;;;;;;;6109240;23;20540;-90
2022/09/29 07:29:35;;;;;;;11.13;6.55;;;;;;;;;;6110934;23;20169;-91
2022/09/29 07:32:41;;;;;;;8.95;5.78;;;;;;;;;;6108965;23;20165;-90
2022/09/29 07:35:46;;;;;;;8.70;5.78;;;;;;;;;;6107816;23;20166;-90
2022/09/29 07:38:53;;;;;;;10.38;5.57;;;;;;;;;;6107539;23;20177;-90
2022/09/29 07:41:58;;;;;;;10.80;6.00;;;;;;;;;;6106794;23;20299;-90
2022/09/29 07:45:05;;;;;;;10.75;5.65;;;;;;;;;;6108272;23;20178;-91
2022/09/29 07:48:10;;;;;;;10.70;5.88;;;;;;;;;;6109103;23;20169;-90
2022/09/29 07:51:16;;;;;;;9.20;5.60;;;;;;;;;;6109584;23;20239;-91
2022/09/29 07:54:22;;;;;;;9.10;5.68;;;;;;;;;;6113629;23;20165;-90
2022/09/29 07:57:27;;;;;;;9.35;5.05;;;;;;;;;;6108092;23;20194;-90
2022/09/29 08:00:34;;;;;;;9.13;5.10;;;;;;;;;;6109580;23;20174;-90
2022/09/29 08:03:40;;;;;;;9.25;5.28;;;;;;;;;;6108292;23;20181;-92
2022/09/29 08:06:45;;;;;;;7.20;4.55;;;;;;;;;;6109799;23;20165;-90
2022/09/29 08:09:50;;;;;;;7.05;4.68;;;;;;;;;;6109221;23;20594;-91
2022/09/29 08:12:55;;;;;;;14.40;7.28;;;;;;;;;;6107575;23;20184;-90
2022/09/29 08:16:02;;;;;;;10.65;5.10;;;;;;;;;;6108661;23;20243;-93
2022/09/29 08:19:07;;;;;;;7.40;4.80;;;;;;;;;;6109297;23;20245;-92
2022/09/29 08:22:13;;;;;;;9.10;5.32;;;;;;;;;;6112388;23;20174;-93
2022/09/29 08:29:10;;;;;;;8.60;4.40;;;;;;;;;;6108834;23;20166;-91
2022/09/29 08:32:17;;;;;;;7.47;3.97;;;;;;;;;;6111446;23;20166;-93
2022/09/29 08:35:24;;;;;;;6.18;3.80;;;;;;;;;;6110425;23;20170;-92
2022/09/29 08:38:32;;;;;;;6.47;3.00;;;;;;;;;;6112584;23;20241;-93
2022/09/29 08:41:45;;;;;;;5.53;2.88;;;;;;;;;;6113442;23;20169;-93
2022/09/29 08:44:57;;;;;;;4.97;2.58;;;;;;;;;;6113869;23;20161;-92
2022/09/29 08:48:08;;;;;;;3.35;1.92;;;;;;;;;;6109278;23;20238;-89
2022/09/29 08:51:28;;;;;;;3.17;1.85;;;;;;;;;;6111173;23;20244;-92
2022/09/29 08:54:35;;;;;;;3.47;2.03;;;;;;;;;;6111009;23;20590;-90
2022/09/29 08:57:40;;;;;;;4.15;1.77;;;;;;;;;;6111383;23;20273;-91
2022/09/29 09:00:48;;;;;;;2.60;1.33;;;;;;;;;;6110505;23;20250;-91
2022/09/29 09:04:03;;;;;;;2.22;1.50;;;;;;;;;;6110532;23;20218;-93
2022/09/29 09:07:11;;;;;;;2.97;1.60;;;;;;;;;;6112400;23;20174;-92
2022/09/29 09:10:23;;;;;;;2.17;1.50;;;;;;;;;;6113039;23;20222;-91
2022/09/29 09:13:44;;;;;;;5.22;1.20;;;;;;;;;;6110890;23;20235;-91
2022/09/29 09:16:51;;;;;;;5.65;1.58;;;;;;;;;;6094755;23;20167;-92
2022/09/29 09:20:04;;;;;;;3.38;1.50;;;;;;;;;;6111297;23;20240;-91
2022/09/29 09:27:29;;;;;;;4.43;1.30;;;;;;;;;;6115274;23;20189;-89
2022/09/29 09:30:39;;;;;;;3.42;1.10;;;;;;;;;;6111295;23;20174;-91
2022/09/29 09:33:47;;;;;;;3.03;0.85;;;;;;;;;;6110537;23;20177;-90
2022/09/29 09:36:57;;;;;;;2.58;1.20;;;;;;;;;;6109794;23;20484;-91
2022/09/29 09:40:10;;;;;;;2.63;0.90;;;;;;;;;;6113189;23;20174;-92
2022/09/29 09:43:19;;;;;;;2.67;1.00;;;;;;;;;;6111684;23;20174;-91
2022/09/29 09:46:27;;;;;;;2.28;1.00;;;;;;;;;;6111642;23;20261;-90
2022/09/29 09:49:35;;;;;;;3.33;0.80;;;;;;;;;;6109097;23;20211;-91
2022/09/29 09:52:44;;;;;;;1.58;0.80;;;;;;;;;;6110055;23;20161;-92
2022/09/29 09:55:52;;;;;;;3.63;1.10;;;;;;;;;;6108593;23;20170;-91
2022/09/29 09:59:05;;;;;;;2.30;0.80;;;;;;;;;;6109464;23;20264;-90
2022/09/29 10:02:18;;;;;;;1.88;0.90;;;;;;;;;;6113382;23;20170;-91
2022/09/29 10:05:25;;;;;;;5.10;1.02;;;;;;;;;;6107997;23;20174;-91
2022/09/29 10:11:53;;;;;;;2.85;0.70;;;;;;;;;;6112507;23;20178;-91
2022/09/29 10:15:17;;;;;;;2.17;0.80;;;;;;;;;;6111476;23;20169;-92
2022/09/29 10:18:26;;;;;;;2.17;0.93;;;;;;;;;;6112089;23;20193;-91
2022/09/29 10:21:38;;;;;;;1.48;0.98;;;;;;;;;;6114028;23;20170;-91
2022/09/29 10:28:30;;;;;;;1.30;0.80;;;;;;;;;;6111634;23;20186;-90
2022/09/29 10:31:37;;;;;;;1.35;0.70;;;;;;;;;;6109470;23;20166;-92
2022/09/29 10:34:44;;;;;;;1.30;0.90;;;;;;;;;;6111870;23;20158;-92
2022/09/29 10:37:54;;;;;;;2.72;1.10;;;;;;;;;;6096652;23;20198;-90
2022/09/29 10:41:01;;;;;;;1.90;1.00;;;;;;;;;;6112703;23;20233;-91
2022/09/29 10:44:22;;;;;;;3.53;0.90;;;;;;;;;;6095026;23;20169;-93
2022/09/29 10:47:28;;;;;;;1.20;0.80;;;;;;;;;;6110358;23;20184;-91
2022/09/29 10:50:35;;;;;;;2.63;1.10;;;;;;;;;;6110883;23;20169;-93
2022/09/29 10:53:42;;;;;;;2.38;1.10;;;;;;;;;;6109934;23;20198;-91
2022/09/29 10:57:00;;;;;;;2.53;0.90;;;;;;;;;;6111365;23;20176;-92
2022/09/29 11:00:08;;;;;;;1.50;0.82;;;;;;;;;;6109118;23;20173;-93
2022/09/29 11:03:18;;;;;;;1.77;1.10;;;;;;;;;;6110412;23;20268;-92
2022/09/29 11:06:27;;;;;;;1.85;0.90;;;;;;;;;;6111209;23;20210;-93
2022/09/29 11:09:37;;;;;;;6.20;1.23;;;;;;;;;;6109174;23;20165;-94
2022/09/29 11:12:44;;;;;;;1.73;0.85;;;;;;;;;;6110708;23;20598;-94
2022/09/29 11:15:52;;;;;;;6.60;0.88;;;;;;;;;;6112800;23;20217;-93
2022/09/29 11:19:00;;;;;;;2.13;1.00;;;;;;;;;;6112294;23;20337;-93
2022/09/29 11:22:24;;;;;;;1.63;0.82;;;;;;;;;;6111404;23;20178;-91
2022/09/29 11:25:48;;;;;;;2.47;0.90;;;;;;;;;;6112285;23;20162;-92
2022/09/29 11:29:08;;;;;;;8.02;1.52;;;;;;;;;;6114545;23;20174;-92
2022/09/29 11:32:25;;;;;;;2.53;0.95;;;;;;;;;;6112266;23;20170;-92
2022/09/29 11:35:38;;;;;;;3.65;1.35;;;;;;;;;;6111255;23;20178;-91
2022/09/29 11:38:53;;;;;;;3.00;0.82;;;;;;;;;;6113242;23;20202;-91
2022/09/29 11:42:22;;;;;;;2.13;0.93;;;;;;;;;;6113513;23;20630;-89
2022/09/29 11:45:33;;;;;;;1.40;0.70;;;;;;;;;;6113292;23;20170;-89
2022/09/29 11:48:52;;;;;;;3.55;1.10;;;;;;;;;;6111894;23;20243;-91
2022/09/29 11:52:05;;;;;;;1.75;1.00;;;;;;;;;;6112652;23;20234;-91
2022/09/29 11:55:44;;;;;;;2.70;0.95;;;;;;;;;;6114507;23;20158;-92
2022/09/29 11:58:57;;;;;;;2.08;1.10;;;;;;;;;;5980325;23;20234;-92
2022/09/29 12:02:23;;;;;;;1.70;0.90;;;;;;;;;;5983597;23;20192;-91
2022/09/29 12:05:44;;;;;;;4.18;0.93;;;;;;;;;;6113313;23;20236;-91
2022/09/29 12:08:57;;;;;;;1.83;1.15;;;;;;;;;;6113225;23;20217;-91
2022/09/29 12:12:07;;;;;;;1.42;0.90;;;;;;;;;;6112016;23;20157;-91
2022/09/29 12:15:26;;;;;;;2.85;1.00;;;;;;;;;;6112731;23;20211;-92
2022/09/29 12:18:33;;;;;;;2.13;1.00;;;;;;;;;;6111369;23;20281;-92
2022/09/29 12:21:41;;;;;;;2.00;1.20;;;;;;;;;;6111329;23;20174;-91
2022/09/29 12:24:51;;;;;;;5.47;1.00;;;;;;;;;;6111926;23;20177;-91
2022/09/29 12:28:00;;;;;;;1.27;0.90;;;;;;;;;;6111494;23;20574;-93
2022/09/29 12:31:10;;;;;;;2.28;1.15;;;;;;;;;;6112349;23;20218;-91
2022/09/29 12:34:17;;;;;;;2.55;1.25;;;;;;;;;;6113084;23;20166;-92
2022/09/29 12:37:26;;;;;;;4.65;1.55;;;;;;;;;;6113465;23;20178;-93
2022/09/29 12:40:46;;;;;;;4.53;1.00;;;;;;;;;;6115257;23;20488;-91
2022/09/29 12:43:57;;;;;;;3.00;1.00;;;;;;;;;;6111569;23;20196;-91
2022/09/29 12:47:06;;;;;;;4.70;1.30;;;;;;;;;;6110743;23;20226;-92
2022/09/29 12:50:14;;;;;;;2.10;1.38;;;;;;;;;;6109056;23;20177;-91
2022/09/29 12:53:26;;;;;;;1.42;1.05;;;;;;;;;;6110516;23;20267;-92
2022/09/29 12:56:34;;;;;;;6.40;1.67;;;;;;;;;;6111632;23;20166;-89
2022/09/29 12:59:43;;;;;;;3.58;1.05;;;;;;;;;;6111129;23;20201;-91
2022/09/29 13:03:02;;;;;;;4.93;1.23;;;;;;;;;;6113296;23;20266;-91
2022/09/29 13:06:22;;;;;;;2.25;1.20;;;;;;;;;;6111425;23;20226;-91
2022/09/29 13:09:38;;;;;;;5.30;1.60;;;;;;;;;;6109679;23;20182;-90
2022/09/29 13:12:56;;;;;;;2.53;1.85;;;;;;;;;;6110579;23;20178;-92
2022/09/29 13:16:11;;;;;;;2.30;1.15;;;;;;;;;;6111538;23;20234;-92
2022/09/29 13:19:25;;;;;;;2.55;1.42;;;;;;;;;;6110133;23;20210;-91
2022/09/29 13:22:50;;;;;;;4.45;1.27;;;;;;;;;;6111308;23;20242;-91
2022/09/29 13:26:02;;;;;;;4.68;1.40;;;;;;;;;;6108226;23;20207;-92
2022/09/29 13:29:11;;;;;;;5.60;1.38;;;;;;;;;;6112438;23;20178;-92
2022/09/29 13:32:18;;;;;;;3.50;1.95;;;;;;;;;;6111579;23;20178;-92
2022/09/29 13:38:48;;;;;;;4.88;1.42;;;;;;;;;;6110862;23;20222;-91
2022/09/29 13:41:54;;;;;;;1.50;0.90;;;;;;;;;;6108921;23;20701;-91
2022/09/29 13:45:37;;;;;;;1.77;1.02;;;;;;;;;;6109220;23;20173;-91
2022/09/29 13:49:04;;;;;;;2.92;1.50;;;;;;;;;;6106791;23;20181;-91
2022/09/29 13:52:30;;;;;;;4.35;1.27;;;;;;;;;;6108553;23;20166;-91
2022/09/29 13:55:50;;;;;;;2.67;1.40;;;;;;;;;;6110467;23;20242;-91
2022/09/29 13:58:59;;;;;;;4.18;1.40;;;;;;;;;;6108085;23;20254;-90
2022/09/29 14:02:19;;;;;;;4.20;1.88;;;;;;;;;;6110158;23;20457;-92
2022/09/29 14:05:46;;;;;;;4.38;1.25;;;;;;;;;;6112377;23;20169;-92
2022/09/29 14:08:59;;;;;;;4.22;1.70;;;;;;;;;;6108239;23;20190;-90
2022/09/29 14:12:08;;;;;;;5.07;1.80;;;;;;;;;;6107174;23;20174;-91
2022/09/29 14:15:17;;;;;;;3.17;1.40;;;;;;;;;;6107426;23;20261;-91
2022/09/29 14:18:32;;;;;;;5.35;1.90;;;;;;;;;;6107390;23;20214;-90
2022/09/29 14:21:50;;;;;;;4.07;1.88;;;;;;;;;;6110211;23;20517;-91
2022/09/29 14:28:44;;;;;;;3.90;1.67;;;;;;;;;;6112629;23;20158;-90
2022/09/29 14:31:51;;;;;;;3.17;1.90;;;;;;;;;;6109465;23;20181;-90
2022/09/29 14:38:19;;;;;;;6.15;2.20;;;;;;;;;;6110654;23;20195;-89
2022/09/29 14:41:30;;;;;;;5.88;2.45;;;;;;;;;;6111610;23;20165;-90
2022/09/29 14:54:55;;;;;;;6.35;1.95;;;;;;;;;;6106673;23;20174;-90
2022/09/29 14:58:09;;;;;;;4.38;2.45;;;;;;;;;;6109430;23;20249;-91
2022/09/29 15:01:19;;;;;;;3.85;2.15;;;;;;;;;;6109066;23;20252;-90
2022/09/29 15:04:26;;;;;;;3.17;2.17;;;;;;;;;;6107707;23;20253;-91
2022/09/29 15:07:42;;;;;;;10.63;3.17;;;;;;;;;;6110555;23;20165;-89
2022/09/29 15:10:51;;;;;;;4.20;2.47;;;;;;;;;;6109363;23;20206;-91
2022/09/29 15:13:57;;;;;;;4.47;2.50;;;;;;;;;;6112286;23;20170;-90
2022/09/29 15:17:13;;;;;;;6.60;2.50;;;;;;;;;;6108956;23;20248;-88
2022/09/29 15:20:22;;;;;;;6.25;2.60;;;;;;;;;;6111706;23;20288;-89
2022/09/29 15:27:13;;;;;;;8.82;2.90;;;;;;;;;;6108453;23;20673;-91
2022/09/29 15:30:24;;;;;;;4.07;2.50;;;;;;;;;;6106837;23;20174;-90
2022/09/29 15:33:30;;;;;;;5.15;2.70;;;;;;;;;;6110056;23;20154;-90
2022/09/29 15:36:36;;;;;;;6.13;2.88;;;;;;;;;;6109674;23;20173;-90
2022/09/29 15:39:54;;;;;;;6.25;2.97;;;;;;;;;;6110709;23;20217;-90
2022/09/29 15:43:03;;;;;;;11.07;4.10;;;;;;;;;;6110267;23;20220;-90
2022/09/29 15:46:17;;;;;;;4.90;2.85;;;;;;;;;;6110232;23;20170;-90
2022/09/29 15:49:26;;;;;;;5.90;2.90;;;;;;;;;;6106932;23;20170;-91
2022/09/29 15:52:36;;;;;;;7.25;3.10;;;;;;;;;;6108469;23;20230;-91
2022/09/29 15:55:42;;;;;;;5.13;2.60;;;;;;;;;;6108764;23;20237;-92
2022/09/29 15:58:48;;;;;;;6.43;2.67;;;;;;;;;;6106735;23;20166;-90
2022/09/29 16:02:04;;;;;;;8.98;3.35;;;;;;;;;;6107595;23;20173;-91
2022/09/29 16:05:13;;;;;;;14.23;3.55;;;;;;;;;;6107382;23;20221;-90
2022/09/29 16:08:20;;;;;;;11.23;3.53;;;;;;;;;;6109415;23;20231;-91
2022/09/29 16:11:27;;;;;;;6.85;3.67;;;;;;;;;;6108564;23;20178;-91
2022/09/29 16:14:34;;;;;;;9.18;3.50;;;;;;;;;;6110402;23;20158;-90
2022/09/29 16:17:40;;;;;;;18.63;9.07;;;;;;;;;;6110906;23;20181;-90
2022/09/29 16:20:47;;;;;;;7.50;3.13;;;;;;;;;;6109568;23;20257;-90
2022/09/29 16:24:19;;;;;;;6.93;4.10;;;;;;;;;;6108987;23;20158;-89
2022/09/29 16:27:42;;;;;;;12.15;3.83;;;;;;;;;;6107453;23;20170;-89
2022/09/29 16:31:01;;;;;;;7.53;3.55;;;;;;;;;;6108819;23;20185;-89
2022/09/29 16:34:21;;;;;;;9.30;3.70;;;;;;;;;;6109895;23;20162;-90
2022/09/29 16:37:27;;;;;;;19.33;5.70;;;;;;;;;;6111812;23;20214;-88
2022/09/29 16:40:35;;;;;;;16.83;4.80;;;;;;;;;;6109138;23;20293;-88
2022/09/29 16:43:43;;;;;;;12.90;5.28;;;;;;;;;;6107629;23;20232;-89
2022/09/29 16:46:52;;;;;;;9.68;5.00;;;;;;;;;;6107134;23;20626;-89
2022/09/29 16:50:01;;;;;;;20.23;8.23;;;;;;;;;;6108707;23;20173;-89
2022/09/29 16:53:07;;;;;;;11.18;4.63;;;;;;;;;;6109050;23;20178;-89
2022/09/29 16:56:17;;;;;;;8.00;3.97;;;;;;;;;;6108456;23;20214;-89
2022/09/29 16:59:23;;;;;;;9.80;4.10;;;;;;;;;;6107219;23;20338;-90
2022/09/29 17:02:30;;;;;;;9.65;4.03;;;;;;;;;;6106928;23;20497;-89
2022/09/29 17:05:36;;;;;;;8.23;4.45;;;;;;;;;;6107968;23;20237;-89
2022/09/29 17:08:42;;;;;;;12.68;4.85;;;;;;;;;;6107564;23;20246;-89
2022/09/29 17:11:49;;;;;;;11.57;4.50;;;;;;;;;;6106826;23;20193;-91
2022/09/29 17:14:56;;;;;;;11.18;5.50;;;;;;;;;;6107970;23;20190;-89
2022/09/29 17:18:17;;;;;;;11.57;6.25;;;;;;;;;;6114266;23;20218;-90
2022/09/29 17:21:24;;;;;;;9.35;5.30;;;;;;;;;;6108090;23;20210;-90
2022/09/29 17:24:29;;;;;;;13.60;5.78;;;;;;;;;;6106627;23;20181;-90
2022/09/29 17:30:57;;;;;;;14.55;6.20;;;;;;;;;;6106699;23;20198;-90
2022/09/29 17:34:06;;;;;;;8.50;4.30;;;;;;;;;;6106999;23;20157;-89
2022/09/29 17:37:18;;;;;;;10.70;5.72;;;;;;;;;;6106119;23;20174;-90
2022/09/29 17:40:24;;;;;;;13.73;6.35;;;;;;;;;;6106872;23;20202;-91
2022/09/29 17:43:30;;;;;;;14.65;8.27;;;;;;;;;;6105442;23;20190;-90
2022/09/29 17:46:35;;;;;;;15.18;6.65;;;;;;;;;;6103497;23;20173;-90
2022/09/29 17:49:40;;;;;;;13.25;5.97;;;;;;;;;;6105122;23;20170;-90
2022/09/29 17:52:46;;;;;;;12.80;6.05;;;;;;;;;;6111776;23;20248;-89
2022/09/29 17:55:54;;;;;;;9.63;5.55;;;;;;;;;;6108719;23;20173;-89
2022/09/29 17:59:02;;;;;;;10.80;5.65;;;;;;;;;;6106053;23;20260;-90
2022/09/29 18:02:10;;;;;;;10.27;5.50;;;;;;;;;;6105210;23;20505;-89
2022/09/29 18:05:20;;;;;;;31.50;12.70;;;;;;;;;;6104940;23;20177;-90
2022/09/29 18:08:28;;;;;;;15.73;6.90;;;;;;;;;;6107724;23;20174;-89
2022/09/29 18:11:33;;;;;;;17.48;8.02;;;;;;;;;;6105478;23;20178;-90
2022/09/29 18:14:42;;;;;;;14.43;6.78;;;;;;;;;;6106252;23;20614;-90
2022/09/29 18:17:47;;;;;;;12.75;7.30;;;;;;;;;;6105626;23;20169;-89
2022/09/29 18:20:52;;;;;;;13.88;7.13;;;;;;;;;;6109164;23;20208;-89
2022/09/29 18:23:59;;;;;;;13.23;7.00;;;;;;;;;;6108055;23;20174;-89
2022/09/29 18:27:04;;;;;;;18.23;7.18;;;;;;;;;;6106547;23;20173;-90
2022/09/29 18:30:18;;;;;;;12.07;6.53;;;;;;;;;;6106593;23;20174;-90
2022/09/29 18:33:23;;;;;;;11.60;6.38;;;;;;;;;;6106353;23;20193;-88
2022/09/29 18:36:28;;;;;;;15.20;7.15;;;;;;;;;;6105329;23;20165;-89
2022/09/29 18:39:38;;;;;;;17.45;7.95;;;;;;;;;;6105238;23;20314;-89
2022/09/29 18:42:44;;;;;;;32.78;18.40;;;;;;;;;;6107426;23;20226;-90
2022/09/29 18:45:49;;;;;;;21.50;9.27;;;;;;;;;;6106716;23;20169;-89
2022/09/29 18:48:54;;;;;;;19.73;9.25;;;;;;;;;;6106881;23;20174;-91
2022/09/29 18:51:59;;;;;;;11.07;5.13;;;;;;;;;;6105649;23;20235;-90
2022/09/29 18:55:06;;;;;;;11.52;5.82;;;;;;;;;;6105027;23;20213;-89
2022/09/29 18:58:13;;;;;;;15.25;7.03;;;;;;;;;;6105354;23;20214;-91
2022/09/29 19:01:20;;;;;;;16.60;7.70;;;;;;;;;;6105610;23;20273;-90
2022/09/29 19:04:25;;;;;;;64.80;32.40;;;;;;;;;;6106351;23;20206;-89
2022/09/29 19:07:31;;;;;;;14.07;8.18;;;;;;;;;;6106550;23;20218;-90
2022/09/29 19:10:40;;;;;;;13.65;6.95;;;;;;;;;;6108975;23;20174;-90
2022/09/29 19:13:45;;;;;;;19.77;8.88;;;;;;;;;;6107180;23;20190;-90
2022/09/29 19:16:53;;;;;;;15.50;7.55;;;;;;;;;;6107100;23;20162;-91
2022/09/29 19:20:00;;;;;;;14.07;6.82;;;;;;;;;;6107184;23;20205;-89
2022/09/29 19:23:07;;;;;;;10.45;6.00;;;;;;;;;;6106466;23;20174;-91
2022/09/29 19:26:21;;;;;;;16.05;7.35;;;;;;;;;;6108332;23;20179;-91
2022/09/29 19:29:26;;;;;;;18.33;6.20;;;;;;;;;;6106973;23;20190;-91
2022/09/29 19:32:31;;;;;;;15.43;8.88;;;;;;;;;;6108148;23;20188;-89
2022/09/29 19:35:37;;;;;;;13.45;7.68;;;;;;;;;;6109145;23;20215;-91
2022/09/29 19:38:43;;;;;;;10.70;5.45;;;;;;;;;;6108098;23;20174;-89
2022/09/29 19:41:50;;;;;;;15.38;6.68;;;;;;;;;;6107750;23;20242;-91
2022/09/29 19:44:55;;;;;;;7.47;4.47;;;;;;;;;;6108702;23;20177;-90
2022/09/29 19:48:00;;;;;;;10.70;5.60;;;;;;;;;;6111051;23;20185;-90
2022/09/29 19:54:32;;;;;;;8.90;4.18;;;;;;;;;;6109332;23;20182;-90
2022/09/29 19:57:41;;;;;;;10.40;3.47;;;;;;;;;;6108500;23;20631;-88
2022/09/29 20:00:46;;;;;;;6.55;3.60;;;;;;;;;;6109884;23;20636;-89
2022/09/29 20:07:10;;;;;;;5.20;3.08;;;;;;;;;;6112176;23;20257;-88
2022/09/29 20:10:16;;;;;;;7.30;4.15;;;;;;;;;;6109084;23;20181;-92
2022/09/29 20:13:24;;;;;;;8.50;4.35;;;;;;;;;;6109394;23;20177;-90
2022/09/29 20:16:32;;;;;;;9.88;4.75;;;;;;;;;;6109615;23;20249;-90
2022/09/29 20:19:37;;;;;;;6.97;4.00;;;;;;;;;;6108435;23;20189;-90
2022/09/29 20:22:42;;;;;;;10.43;4.30;;;;;;;;;;6110615;23;20182;-91
2022/09/29 20:25:47;;;;;;;8.80;3.90;;;;;;;;;;6110633;23;20174;-90
2022/09/29 20:28:54;;;;;;;6.65;3.80;;;;;;;;;;6112061;23;20237;-90
2022/09/29 20:31:59;;;;;;;7.20;4.00;;;;;;;;;;6108130;23;20229;-91
2022/09/29 20:35:04;;;;;;;9.23;4.65;;;;;;;;;;6111640;23;20173;-91
2022/09/29 20:38:10;;;;;;;11.25;5.00;;;;;;;;;;6109733;23;20181;-90
2022/09/29 20:41:16;;;;;;;7.90;4.22;;;;;;;;;;6108099;23;20193;-91
2022/09/29 20:44:24;;;;;;;11.07;5.28;;;;;;;;;;6107750;23;20162;-90
2022/09/29 20:47:29;;;;;;;8.85;4.32;;;;;;;;;;6106733;23;20318;-90
2022/09/29 20:50:35;;;;;;;9.70;4.82;;;;;;;;;;6108285;23;20223;-89
2022/09/29 20:53:40;;;;;;;8.10;4.10;;;;;;;;;;6106878;23;20174;-90
2022/09/29 20:56:45;;;;;;;10.13;4.30;;;;;;;;;;6106258;23;20232;-91
2022/09/29 20:59:51;;;;;;;9.15;4.30;;;;;;;;;;6106852;23;20181;-91
2022/09/29 21:02:57;;;;;;;5.53;2.88;;;;;;;;;;6106974;23;20161;-91
2022/09/29 21:06:02;;;;;;;8.57;3.63;;;;;;;;;;6108584;23;20229;-89
2022/09/29 21:09:08;;;;;;;5.70;3.20;;;;;;;;;;6107669;23;20178;-91
2022/09/29 21:12:13;;;;;;;7.78;4.13;;;;;;;;;;6107593;23;20182;-89
2022/09/29 21:15:19;;;;;;;8.75;3.95;;;;;;;;;;6108565;23;20357;-90
2022/09/29 21:18:25;;;;;;;8.13;4.15;;;;;;;;;;6108951;23;20185;-88
2022/09/29 21:21:30;;;;;;;6.20;3.78;;;;;;;;;;6110281;23;20249;-90
2022/09/29 21:24:37;;;;;;;8.32;3.97;;;;;;;;;;6110991;23;20467;-91
2022/09/29 21:27:43;;;;;;;7.50;4.28;;;;;;;;;;6110346;23;20475;-89
2022/09/29 21:30:53;;;;;;;10.60;4.43;;;;;;;;;;6109867;23;20154;-90
2022/09/29 21:33:59;;;;;;;6.93;3.60;;;;;;;;;;6108990;23;20174;-92
2022/09/29 21:37:04;;;;;;;7.88;3.80;;;;;;;;;;6110386;23;20185;-90
2022/09/29 21:40:09;;;;;;;4.88;3.00;;;;;;;;;;6110064;23;20188;-91
2022/09/29 21:43:14;;;;;;;7.15;3.70;;;;;;;;;;6108901;23;20170;-91
2022/09/29 21:46:22;;;;;;;9.48;4.55;;;;;;;;;;6109999;23;20165;-89
2022/09/29 21:49:27;;;;;;;7.47;3.90;;;;;;;;;;6109168;23;20153;-88
2022/09/29 21:52:34;;;;;;;5.45;3.20;;;;;;;;;;6109851;23;20186;-92
2022/09/29 21:55:42;;;;;;;5.35;3.22;;;;;;;;;;6107916;23;20234;-90
2022/09/29 21:58:48;;;;;;;6.32;3.38;;;;;;;;;;6107604;23;20157;-90
2022/09/29 22:01:57;;;;;;;5.15;2.78;;;;;;;;;;6106385;23;20197;-90
2022/09/29 22:05:02;;;;;;;5.68;3.00;;;;;;;;;;6108646;23;20171;-90
2022/09/29 22:08:07;;;;;;;5.18;3.30;;;;;;;;;;6105839;23;20210;-90
2022/09/29 22:11:15;;;;;;;4.63;2.83;;;;;;;;;;6108251;23;20174;-89
2022/09/29 22:14:20;;;;;;;9.13;3.58;;;;;;;;;;6106690;23;20213;-89
2022/09/29 22:17:27;;;;;;;7.03;3.08;;;;;;;;;;6106692;23;20161;-90
2022/09/29 22:20:32;;;;;;;8.02;3.65;;;;;;;;;;6106108;23;20314;-90
2022/09/29 22:23:38;;;;;;;8.02;3.03;;;;;;;;;;6105833;23;20182;-90
2022/09/29 22:26:43;;;;;;;3.70;2.72;;;;;;;;;;6105926;23;20170;-89
2022/09/29 22:29:48;;;;;;;6.03;3.17;;;;;;;;;;6107191;23;20231;-90
2022/09/29 22:32:55;;;;;;;5.60;3.10;;;;;;;;;;6108822;23;20199;-90
2022/09/29 22:36:00;;;;;;;7.82;3.25;;;;;;;;;;6107613;23;20178;-90
2022/09/29 22:39:06;;;;;;;7.40;3.00;;;;;;;;;;6107715;23;20177;-90
2022/09/29 22:42:12;;;;;;;6.65;3.28;;;;;;;;;;6108314;23;20213;-88
2022/09/29 22:45:17;;;;;;;6.15;3.58;;;;;;;;;;6106723;23;20257;-90
2022/09/29 22:48:24;;;;;;;7.97;3.10;;;;;;;;;;6107553;23;20182;-90
2022/09/29 22:51:29;;;;;;;7.45;4.30;;;;;;;;;;6105994;23;20618;-89
2022/09/29 22:54:34;;;;;;;9.20;4.75;;;;;;;;;;6107490;23;20162;-90
2022/09/29 22:57:39;;;;;;;10.70;4.82;;;;;;;;;;6107801;23;20158;-89